Time;durP1;ratioP1;P1;durP2;ratioP2;P2;SDS_P1;SDS_P2;PMS_P1;PMS_P2;Temp;Humidity;BMP_temperature;BMP_pressure;BME280_temperature;BME280_humidity;BME280_pressure;Samples;Min_cycle;Max_cycle;Signal;HPM_P1;HPM_P2
2023/03/31 00:00:30;;;;;;;;;;;;;;;16.04;100.00;97875.78;5018497;28;19925;-50
2023/03/31 00:02:56;;;;;;;;;;;;;;;16.18;100.00;97885.19;5021182;28;19917;-51
2023/03/31 00:05:23;;;;;;;;;;;;;;;16.36;100.00;97861.41;5018282;28;19924;-50
2023/03/31 00:07:51;;;;;;;;;;;;;;;15.81;100.00;97879.22;5020702;28;19921;-49
2023/03/31 00:10:18;;;;;;;;;;;;;;;16.13;100.00;97861.31;5021589;28;20878;-49
2023/03/31 00:12:43;;;;;;;;;;;;;;;16.15;100.00;97868.97;5019423;28;19920;-50
2023/03/31 00:15:08;;;;;;;;;;;;;;;16.24;100.00;97856.16;5018307;28;20512;-49
2023/03/31 00:17:34;;;;;;;;;;;;;;;16.40;100.00;97855.00;5026350;28;20386;-48
2023/03/31 00:20:03;;;;;;;;;;;;;;;15.79;100.00;97857.75;5019526;28;19949;-50
2023/03/31 00:22:28;;;;;;;;;;;;;;;15.93;100.00;97859.34;5019989;28;21136;-50
2023/03/31 00:24:54;;;;;;;;;;;;;;;15.71;100.00;97875.63;5019940;28;19921;-49
2023/03/31 00:27:19;;;;;;;;;;;;;;;15.66;100.00;97883.69;5019011;28;19927;-52
2023/03/31 00:29:44;;;;;;;;;;;;;;;15.99;100.00;97862.31;5020937;28;19917;-51
2023/03/31 00:32:10;;;;;;;;;;;;;;;15.57;100.00;97884.34;5020879;28;19925;-49
2023/03/31 00:34:36;;;;;;;;;;;;;;;15.92;100.00;97878.44;5020345;28;20384;-47
2023/03/31 00:37:01;;;;;;;;;;;;;;;16.11;100.00;97863.19;5019380;28;20086;-49
2023/03/31 00:39:30;;;;;;;;;;;;;;;15.93;100.00;97843.75;5020253;28;19924;-49
2023/03/31 00:41:55;;;;;;;;;;;;;;;15.16;100.00;97838.78;5021096;28;20503;-49
2023/03/31 00:44:23;;;;;;;;;;;;;;;15.68;100.00;97843.72;5020428;28;19928;-51
2023/03/31 00:46:48;;;;;;;;;;;;;;;15.71;100.00;97839.28;5023346;28;19928;-50
2023/03/31 00:49:15;;;;;;;;;;;;;;;16.06;100.00;97834.16;5023194;28;19951;-49
2023/03/31 00:51:40;;;;;;;;;;;;;;;15.97;100.00;97814.03;5023742;28;19995;-48
2023/03/31 00:54:07;;;;;;;;;;;;;;;15.84;100.00;97812.31;5005986;28;20016;-51
2023/03/31 00:56:33;;;;;;;;;;;;;;;16.25;100.00;97785.06;5021235;28;19981;-50
2023/03/31 00:59:00;;;;;;;;;;;;;;;15.79;100.00;97785.88;5022530;28;19952;-52
2023/03/31 01:01:25;;;;;;;;;;;;;;;15.71;100.00;97789.97;5022828;28;19947;-50
2023/03/31 01:03:51;;;;;;;;;;;;;;;16.01;100.00;97784.28;5023991;28;19929;-51
2023/03/31 01:06:18;;;;;;;;;;;;;;;15.87;100.00;97782.72;5021728;28;19928;-48
2023/03/31 01:08:43;;;;;;;;;;;;;;;16.39;100.00;97755.47;5023292;28;20004;-52
2023/03/31 01:11:09;;;;;;;;;;;;;;;15.72;100.00;97748.31;5022165;28;19946;-51
2023/03/31 01:13:35;;;;;;;;;;;;;;;15.61;100.00;97756.03;5021668;28;19931;-52
2023/03/31 01:16:00;;;;;;;;;;;;;;;16.02;100.00;97754.81;5021007;28;19963;-50
2023/03/31 01:18:27;;;;;;;;;;;;;;;16.04;100.00;97743.34;5021936;28;19991;-50
2023/03/31 01:21:13;;;;;;;;;;;;;;;16.20;100.00;97730.06;5023308;28;19921;-50
2023/03/31 01:24:02;;;;;;;;;;;;;;;15.75;100.00;97727.31;5021396;28;19936;-48
2023/03/31 01:26:42;;;;;;;;;;;;;;;15.42;100.00;97733.19;5021374;28;19920;-49
2023/03/31 01:29:07;;;;;;;;;;;;;;;15.75;100.00;97744.69;5024091;28;19927;-49
2023/03/31 01:31:36;;;;;;;;;;;;;;;15.71;100.00;97736.28;5023535;28;19924;-48
2023/03/31 01:34:07;;;;;;;;;;;;;;;16.07;100.00;97721.53;5024146;28;19924;-52
2023/03/31 01:36:32;;;;;;;;;;;;;;;16.12;100.00;97708.19;5024231;28;19951;-49
2023/03/31 01:39:24;;;;;;;;;;;;;;;16.02;100.00;97708.06;5022368;28;20042;-49
2023/03/31 01:41:55;;;;;;;;;;;;;;;16.12;100.00;97709.00;5004318;28;20634;-50
2023/03/31 01:44:39;;;;;;;;;;;;;;;16.18;100.00;97707.72;5016258;28;19920;-51
2023/03/31 01:47:06;;;;;;;;;;;;;;;15.63;100.00;97717.81;5020947;28;19933;-48
2023/03/31 01:49:34;;;;;;;;;;;;;;;15.82;100.00;97722.50;5019755;28;20444;-49
2023/03/31 01:52:03;;;;;;;;;;;;;;;15.29;100.00;97730.63;5019870;28;19913;-48
2023/03/31 01:54:43;;;;;;;;;;;;;;;15.06;100.00;97746.06;5017705;28;19928;-51
2023/03/31 01:57:11;;;;;;;;;;;;;;;15.12;100.00;97769.91;5020998;28;19929;-49
2023/03/31 01:59:56;;;;;;;;;;;;;;;15.51;100.00;97774.03;5020689;28;20136;-48
2023/03/31 02:02:26;;;;;;;;;;;;;;;14.93;100.00;97791.91;5021271;28;19943;-48
2023/03/31 02:04:58;;;;;;;;;;;;;;;14.83;100.00;97828.03;5018508;28;19920;-48
2023/03/31 02:07:25;;;;;;;;;;;;;;;15.14;100.00;97835.44;5019382;28;19921;-48
2023/03/31 02:09:52;;;;;;;;;;;;;;;15.76;100.00;97819.84;5019547;28;20404;-48
2023/03/31 02:12:18;;;;;;;;;;;;;;;15.25;100.00;97832.94;5017373;28;19987;-49
2023/03/31 02:14:43;;;;;;;;;;;;;;;15.56;100.00;97820.41;5017486;28;20813;-49
2023/03/31 02:17:17;;;;;;;;;;;;;;;15.81;100.00;97784.00;5017791;28;20676;-47
2023/03/31 02:19:42;;;;;;;;;;;;;;;16.07;100.00;97778.66;5020537;28;20123;-49
2023/03/31 02:22:07;;;;;;;;;;;;;;;15.31;100.00;97780.66;5018349;28;19921;-47
2023/03/31 02:24:33;;;;;;;;;;;;;;;15.21;100.00;97795.19;5020587;28;19932;-47
2023/03/31 02:27:05;;;;;;;;;;;;;;;15.57;100.00;97824.66;5019977;28;19999;-47
2023/03/31 02:29:30;;;;;;;;;;;;;;;14.52;100.00;97839.59;5018608;28;21695;-47
2023/03/31 02:31:59;;;;;;;;;;;;;;;14.85;100.00;97872.00;5020210;28;20002;-49
2023/03/31 02:34:24;;;;;;;;;;;;;;;14.84;100.00;97904.00;5017026;28;19980;-47
2023/03/31 02:36:50;;;;;;;;;;;;;;;14.82;100.00;97916.25;5018162;28;20023;-49
2023/03/31 02:39:16;;;;;;;;;;;;;;;15.15;100.00;97905.38;5020660;28;20382;-47
2023/03/31 02:41:42;;;;;;;;;;;;;;;14.90;100.00;97906.22;5019760;28;20115;-47
2023/03/31 02:44:07;;;;;;;;;;;;;;;15.07;100.00;97928.38;5018287;28;19923;-47
2023/03/31 02:46:33;;;;;;;;;;;;;;;14.54;100.00;97912.03;5016497;28;20398;-47
2023/03/31 02:48:58;;;;;;;;;;;;;;;14.84;100.00;97940.31;5019166;28;20752;-47
2023/03/31 02:51:27;;;;;;;;;;;;;;;13.68;100.00;97988.19;5017695;28;19927;-46
2023/03/31 02:54:03;;;;;;;;;;;;;;;14.14;100.00;98057.00;5020088;28;19921;-49
2023/03/31 02:56:28;;;;;;;;;;;;;;;14.47;100.00;98099.88;5017387;28;19921;-46
2023/03/31 02:58:53;;;;;;;;;;;;;;;14.41;100.00;98089.00;5020089;28;19943;-47
2023/03/31 03:01:26;;;;;;;;;;;;;;;13.46;100.00;98115.41;5019874;28;20663;-47
2023/03/31 03:04:03;;;;;;;;;;;;;;;13.75;100.00;98172.38;5018541;28;20023;-47
2023/03/31 03:06:29;;;;;;;;;;;;;;;14.10;100.00;98175.47;5017216;28;19925;-49
2023/03/31 03:09:00;;;;;;;;;;;;;;;13.61;100.00;98173.16;5019294;28;19925;-47
2023/03/31 03:11:34;;;;;;;;;;;;;;;13.14;100.00;98195.59;5020325;28;20929;-47
2023/03/31 03:14:04;;;;;;;;;;;;;;;13.78;100.00;98242.91;5019048;28;19925;-47
2023/03/31 03:16:35;;;;;;;;;;;;;;;14.27;100.00;98274.63;5015491;28;19924;-48
2023/03/31 03:19:02;;;;;;;;;;;;;;;13.32;100.00;98240.31;5017793;28;19971;-48
2023/03/31 03:21:27;;;;;;;;;;;;;;;14.34;100.00;98255.22;5019916;28;19937;-46
2023/03/31 03:23:53;;;;;;;;;;;;;;;14.89;100.00;98246.72;5020162;28;20412;-47
2023/03/31 03:26:20;;;;;;;;;;;;;;;14.51;100.00;98173.91;5016056;28;19925;-48
2023/03/31 03:28:46;;;;;;;;;;;;;;;14.69;100.00;98182.31;5018129;28;19921;-46
2023/03/31 03:31:12;;;;;;;;;;;;;;;14.64;100.00;98116.09;5019392;28;20404;-48
2023/03/31 03:33:37;;;;;;;;;;;;;;;14.34;100.00;98104.97;5018849;28;20647;-46
2023/03/31 03:36:02;;;;;;;;;;;;;;;14.29;100.00;98096.69;5018513;28;19973;-47
2023/03/31 03:38:28;;;;;;;;;;;;;;;14.96;100.00;98071.72;5019337;28;20011;-49
2023/03/31 03:40:53;;;;;;;;;;;;;;;14.30;100.00;98037.03;5017770;28;20158;-47
2023/03/31 03:43:18;;;;;;;;;;;;;;;14.12;100.00;98049.34;5019843;28;19928;-47
2023/03/31 03:45:47;;;;;;;;;;;;;;;14.54;100.00;98034.66;5032877;28;20014;-49
2023/03/31 03:48:12;;;;;;;;;;;;;;;14.97;100.00;98028.47;5019448;28;20347;-46
2023/03/31 03:50:37;;;;;;;;;;;;;;;14.78;100.00;97979.56;5018260;28;19920;-49
2023/03/31 03:53:02;;;;;;;;;;;;;;;14.98;100.00;97976.50;5017272;28;20014;-46
2023/03/31 03:55:28;;;;;;;;;;;;;;;14.96;100.00;97929.13;5019174;28;19924;-47
2023/03/31 03:57:53;;;;;;;;;;;;;;;15.56;100.00;97883.53;5018104;28;19932;-46
2023/03/31 04:00:18;;;;;;;;;;;;;;;14.49;100.00;97864.88;5017723;28;19956;-47
2023/03/31 04:02:44;;;;;;;;;;;;;;;14.49;100.00;97847.56;5020387;28;20240;-49
2023/03/31 04:05:09;;;;;;;;;;;;;;;14.84;100.00;97829.66;5018032;28;19964;-47
2023/03/31 04:07:34;;;;;;;;;;;;;;;15.25;100.00;97832.94;5018372;28;20031;-46
2023/03/31 04:09:59;;;;;;;;;;;;;;;15.89;100.00;97822.38;5017811;28;20329;-47
2023/03/31 04:12:25;;;;;;;;;;;;;;;15.79;100.00;97751.31;5014510;28;19925;-46
2023/03/31 04:14:50;;;;;;;;;;;;;;;14.65;100.00;97720.44;5017226;28;20022;-47
2023/03/31 04:17:15;;;;;;;;;;;;;;;14.23;100.00;97733.59;5020743;28;19981;-47
2023/03/31 04:19:41;;;;;;;;;;;;;;;13.73;100.00;97810.22;5022398;28;20717;-47
2023/03/31 04:22:10;;;;;;;;;;;;;;;15.50;100.00;97836.41;5022722;28;20509;-45
2023/03/31 04:24:37;;;;;;;;;;;;;;;14.87;100.00;97760.41;5021401;28;19917;-46
2023/03/31 04:27:06;;;;;;;;;;;;;;;15.36;100.00;97768.16;5019764;28;19917;-48
2023/03/31 04:29:32;;;;;;;;;;;;;;;15.22;100.00;97732.84;5016835;28;20250;-47
2023/03/31 04:31:57;;;;;;;;;;;;;;;14.83;100.00;97713.16;5022263;28;19916;-47
2023/03/31 04:34:25;;;;;;;;;;;;;;;15.27;100.00;97698.78;5022636;28;19921;-47
2023/03/31 04:36:50;;;;;;;;;;;;;;;15.17;100.00;97658.91;5023052;28;20035;-46
2023/03/31 04:39:16;;;;;;;;;;;;;;;15.27;100.00;97649.50;5021708;28;19968;-47
2023/03/31 04:41:41;;;;;;;;;;;;;;;15.41;100.00;97623.38;5021833;28;19921;-49
2023/03/31 04:44:07;;;;;;;;;;;;;;;15.39;100.00;97601.91;5020094;28;19925;-47
2023/03/31 04:46:32;;;;;;;;;;;;;;;15.33;100.00;97617.13;5020353;28;19928;-46
2023/03/31 04:48:58;;;;;;;;;;;;;;;14.91;100.00;97601.97;5024219;28;19921;-46
2023/03/31 04:51:23;;;;;;;;;;;;;;;14.42;100.00;97595.06;5022106;28;20023;-49
2023/03/31 04:53:48;;;;;;;;;;;;;;;14.17;100.00;97640.78;5020969;28;20721;-48
2023/03/31 04:56:14;;;;;;;;;;;;;;;15.24;100.00;97686.06;5021615;28;19917;-47
2023/03/31 04:58:39;;;;;;;;;;;;;;;15.48;100.00;97634.13;5022853;28;20497;-47
2023/03/31 05:01:07;;;;;;;;;;;;;;;14.94;100.00;97619.91;5021516;28;19921;-47
2023/03/31 05:03:33;;;;;;;;;;;;;;;14.94;100.00;97653.63;5021426;28;20487;-46
2023/03/31 05:05:58;;;;;;;;;;;;;;;14.90;100.00;97618.47;5021457;28;19948;-45
2023/03/31 05:08:23;;;;;;;;;;;;;;;14.87;100.00;97674.88;5022653;28;19916;-46
2023/03/31 05:10:49;;;;;;;;;;;;;;;14.77;100.00;97679.88;5025019;28;20372;-46
2023/03/31 05:13:14;;;;;;;;;;;;;;;14.22;100.00;97672.38;5021407;28;20010;-46
2023/03/31 05:15:39;;;;;;;;;;;;;;;13.72;100.00;97710.22;5019343;28;19924;-48
2023/03/31 05:18:05;;;;;;;;;;;;;;;14.45;100.00;97771.00;5020958;28;19977;-46
2023/03/31 05:20:30;;;;;;;;;;;;;;;14.00;100.00;97792.09;5021263;28;19943;-46
2023/03/31 05:22:55;;;;;;;;;;;;;;;14.38;100.00;97798.25;5021641;28;20020;-46
2023/03/31 05:25:21;;;;;;;;;;;;;;;14.39;100.00;97802.47;5023032;28;20370;-46
2023/03/31 05:27:46;;;;;;;;;;;;;;;14.25;100.00;97779.25;5022370;28;20155;-48
2023/03/31 05:30:12;;;;;;;;;;;;;;;14.18;100.00;97758.13;5020910;28;20415;-47
2023/03/31 05:32:37;;;;;;;;;;;;;;;14.23;100.00;97762.09;5019994;28;19943;-47
2023/03/31 05:35:02;;;;;;;;;;;;;;;14.22;100.00;97770.78;5020626;28;19920;-47
2023/03/31 05:37:28;;;;;;;;;;;;;;;14.40;100.00;97767.88;5022046;28;19931;-47
2023/03/31 05:39:53;;;;;;;;;;;;;;;13.50;100.00;97767.72;5021332;28;19951;-47
2023/03/31 05:42:18;;;;;;;;;;;;;;;14.34;100.00;97804.56;5021704;28;19923;-47
2023/03/31 05:44:44;;;;;;;;;;;;;;;14.01;100.00;97800.69;5017351;28;19921;-47
2023/03/31 05:47:09;;;;;;;;;;;;;;;13.90;100.00;97791.00;5021966;28;20122;-46
2023/03/31 05:49:34;;;;;;;;;;;;;;;14.12;100.00;97774.91;5021267;28;19974;-47
2023/03/31 05:52:00;;;;;;;;;;;;;;;14.00;100.00;97801.59;5021398;28;20374;-47
2023/03/31 05:54:25;;;;;;;;;;;;;;;13.96;100.00;97797.56;5020430;28;19920;-49
2023/03/31 05:56:51;;;;;;;;;;;;;;;13.18;100.00;97767.09;5018064;28;21670;-50
2023/03/31 05:59:16;;;;;;;;;;;;;;;13.87;100.00;97834.38;5019600;28;19999;-47
2023/03/31 06:01:41;;;;;;;;;;;;;;;14.20;100.00;97803.69;5004974;28;20027;-47
2023/03/31 06:04:06;;;;;;;;;;;;;;;13.93;100.00;97756.34;5021187;28;20330;-46
2023/03/31 06:06:36;;;;;;;;;;;;;;;13.99;100.00;97799.94;5019304;28;19970;-46
2023/03/31 06:09:02;;;;;;;;;;;;;;;13.92;100.00;97783.16;5020690;28;19999;-47
2023/03/31 06:11:27;;;;;;;;;;;;;;;14.11;100.00;97778.41;5018667;28;20115;-48
2023/03/31 06:13:53;;;;;;;;;;;;;;;14.45;100.00;97734.72;5020535;28;19932;-49
2023/03/31 06:16:18;;;;;;;;;;;;;;;14.15;100.00;97707.38;5019668;28;19920;-48
2023/03/31 06:18:43;;;;;;;;;;;;;;;14.25;100.00;97699.00;5021941;28;20449;-47
2023/03/31 06:21:13;;;;;;;;;;;;;;;13.88;100.00;97702.28;5019060;28;20059;-47
2023/03/31 06:23:38;;;;;;;;;;;;;;;14.58;100.00;97701.09;5019514;28;20488;-47
2023/03/31 06:26:05;;;;;;;;;;;;;;;13.51;100.00;97634.03;5019228;28;19935;-48
2023/03/31 06:28:31;;;;;;;;;;;;;;;13.79;100.00;97659.72;5020293;28;20399;-47
2023/03/31 06:31:03;;;;;;;;;;;;;;;13.91;100.00;97685.72;5019770;28;19921;-49
2023/03/31 06:33:29;;;;;;;;;;;;;;;14.02;100.00;97631.47;5020668;28;20413;-47
2023/03/31 06:35:55;;;;;;;;;;;;;;;13.93;100.00;97651.03;5021065;28;19921;-47
2023/03/31 06:38:20;;;;;;;;;;;;;;;13.45;100.00;97630.09;5020365;28;19921;-48
2023/03/31 06:40:45;;;;;;;;;;;;;;;13.38;100.00;97644.34;5020169;28;19966;-47
2023/03/31 06:43:10;;;;;;;;;;;;;;;13.71;100.00;97623.22;5021528;28;20032;-49
2023/03/31 06:45:36;;;;;;;;;;;;;;;14.50;100.00;97592.75;5015281;28;19928;-48
2023/03/31 06:48:01;;;;;;;;;;;;;;;14.36;100.00;97530.75;5020384;28;19921;-47
2023/03/31 06:50:26;;;;;;;;;;;;;;;14.72;100.00;97478.09;5020094;28;20035;-48
2023/03/31 06:52:53;;;;;;;;;;;;;;;14.13;100.00;97476.25;5020425;28;19955;-49
2023/03/31 06:55:19;;;;;;;;;;;;;;;13.87;100.00;97526.44;5017534;28;20152;-49
2023/03/31 06:57:44;;;;;;;;;;;;;;;14.12;100.00;97526.38;5019616;28;19982;-48
2023/03/31 07:00:10;;;;;;;;;;;;;;;14.64;100.00;97512.34;5019275;28;20023;-47
2023/03/31 07:02:35;;;;;;;;;;;;;;;14.13;100.00;97416.69;5018052;28;19966;-50
2023/03/31 07:05:01;;;;;;;;;;;;;;;14.34;100.00;97454.94;5021571;28;19939;-48
2023/03/31 07:07:26;;;;;;;;;;;;;;;13.63;100.00;97469.44;5017312;28;19917;-50
2023/03/31 07:09:51;;;;;;;;;;;;;;;14.79;100.00;97468.09;5019571;28;20065;-49
2023/03/31 07:12:16;;;;;;;;;;;;;;;13.92;100.00;97457.88;5018645;28;19928;-47
2023/03/31 07:14:42;;;;;;;;;;;;;;;13.83;100.00;97453.34;5018639;28;20336;-49
2023/03/31 07:17:07;;;;;;;;;;;;;;;14.50;100.00;97424.38;5021782;28;20396;-48
2023/03/31 07:19:32;;;;;;;;;;;;;;;13.98;100.00;97392.75;5019503;28;21147;-50
2023/03/31 07:21:57;;;;;;;;;;;;;;;14.20;100.00;97398.97;5016218;28;19947;-46
2023/03/31 07:24:23;;;;;;;;;;;;;;;14.32;100.00;97407.59;5021315;28;19921;-50
2023/03/31 07:26:48;;;;;;;;;;;;;;;14.07;100.00;97413.72;5021408;28;19919;-47
2023/03/31 07:29:13;;;;;;;;;;;;;;;15.20;100.00;97407.13;5021690;28;19963;-47
2023/03/31 07:31:38;;;;;;;;;;;;;;;14.49;100.00;97360.59;5020217;28;20010;-49
2023/03/31 07:34:04;;;;;;;;;;;;;;;14.05;100.00;97375.03;5020180;28;19921;-46
2023/03/31 07:36:29;;;;;;;;;;;;;;;14.71;100.00;97390.09;5020185;28;19921;-49
2023/03/31 07:38:54;;;;;;;;;;;;;;;14.01;100.00;97415.00;5020525;28;19928;-47
2023/03/31 07:41:20;;;;;;;;;;;;;;;14.56;100.00;97436.94;5020032;28;20004;-47
2023/03/31 07:43:45;;;;;;;;;;;;;;;14.29;100.00;97459.63;5018629;28;19921;-46
2023/03/31 07:46:18;;;;;;;;;;;;;;;13.30;100.00;97460.47;5017630;28;19917;-47
2023/03/31 07:48:45;;;;;;;;;;;;;;;14.15;100.00;97505.44;5021815;28;19957;-46
2023/03/31 07:51:10;;;;;;;;;;;;;;;14.09;100.00;97511.03;5020790;28;19916;-46
2023/03/31 07:53:35;;;;;;;;;;;;;;;13.98;100.00;97529.94;5018803;28;19917;-48
2023/03/31 07:56:00;;;;;;;;;;;;;;;14.17;100.00;97534.66;5016090;28;20004;-46
2023/03/31 07:58:26;;;;;;;;;;;;;;;14.59;100.00;97504.06;5020871;28;19964;-46
2023/03/31 08:00:51;;;;;;;;;;;;;;;14.60;100.00;97476.41;5018834;28;20286;-47
2023/03/31 08:03:16;;;;;;;;;;;;;;;13.95;100.00;97472.38;5020029;28;19927;-48
2023/03/31 08:05:41;;;;;;;;;;;;;;;13.48;100.00;97477.31;5019317;28;19920;-46
2023/03/31 08:08:07;;;;;;;;;;;;;;;14.15;100.00;97541.69;5018454;28;19923;-46
2023/03/31 08:10:32;;;;;;;;;;;;;;;14.21;100.00;97549.03;5019590;28;19924;-46
2023/03/31 08:12:57;;;;;;;;;;;;;;;14.43;100.00;97519.03;5020200;28;20401;-47
2023/03/31 08:15:22;;;;;;;;;;;;;;;14.24;100.00;97493.63;5018443;28;19920;-48
2023/03/31 08:17:48;;;;;;;;;;;;;;;13.91;100.00;97476.94;5020574;28;19917;-46
2023/03/31 08:20:13;;;;;;;;;;;;;;;13.59;100.00;97523.13;5019753;28;19995;-48
2023/03/31 08:22:38;;;;;;;;;;;;;;;13.56;100.00;97529.34;5019850;28;19916;-46
2023/03/31 08:25:05;;;;;;;;;;;;;;;13.30;100.00;97544.03;5020797;28;19921;-47
2023/03/31 08:27:34;;;;;;;;;;;;;;;13.01;100.00;97573.50;5019206;28;19982;-47
2023/03/31 08:30:03;;;;;;;;;;;;;;;14.31;100.00;97654.56;5018465;28;20043;-46
2023/03/31 08:32:28;;;;;;;;;;;;;;;13.18;100.00;97592.16;5018188;28;19948;-47
2023/03/31 08:34:53;;;;;;;;;;;;;;;13.69;100.00;97630.25;5018652;28;20011;-48
2023/03/31 08:37:19;;;;;;;;;;;;;;;13.10;100.00;97609.09;5019653;28;19932;-47
2023/03/31 08:39:44;;;;;;;;;;;;;;;13.86;100.00;97659.31;5019148;28;19921;-47
2023/03/31 08:42:11;;;;;;;;;;;;;;;13.68;100.00;97688.06;5020751;28;20407;-48
2023/03/31 08:44:38;;;;;;;;;;;;;;;13.23;100.00;97656.50;5016071;28;19921;-47
2023/03/31 08:47:04;;;;;;;;;;;;;;;14.97;100.00;97694.03;5016669;28;20015;-46
2023/03/31 08:49:40;;;;;;;;;;;;;;;14.06;100.00;97616.56;5016750;28;19921;-47
2023/03/31 08:52:09;;;;;;;;;;;;;;;14.03;100.00;97620.22;5018732;28;20050;-46
2023/03/31 08:54:38;;;;;;;;;;;;;;;14.67;100.00;97608.94;5017461;28;19916;-47
2023/03/31 08:57:05;;;;;;;;;;;;;;;14.79;100.00;97593.31;5017665;28;19921;-47
2023/03/31 08:59:33;;;;;;;;;;;;;;;15.02;100.00;97554.53;5021187;28;20390;-48
2023/03/31 09:02:04;;;;;;;;;;;;;;;15.32;100.00;97486.59;5018080;28;19970;-46
2023/03/31 09:04:42;;;;;;;;;;;;;;;15.44;100.00;97374.13;5021899;28;20495;-46
2023/03/31 09:07:10;;;;;;;;;;;;;;;15.39;100.00;97332.13;5017967;28;19964;-47
2023/03/31 09:09:41;;;;;;;;;;;;;;;15.38;100.00;97356.44;5021316;28;19921;-47
2023/03/31 09:12:09;;;;;;;;;;;;;;;15.34;100.00;97373.19;5022725;28;20674;-47
2023/03/31 09:14:37;;;;;;;;;;;;;;;15.66;100.00;97356.88;5020421;28;19948;-47
2023/03/31 09:17:15;;;;;;;;;;;;;;;14.99;100.00;97296.34;5021239;28;20043;-46
2023/03/31 09:19:42;;;;;;;;;;;;;;;15.62;100.00;97307.00;5018170;28;19932;-49
2023/03/31 09:22:12;;;;;;;;;;;;;;;16.01;100.00;97309.09;5024173;28;19923;-47
2023/03/31 09:24:56;;;;;;;;;;;;;;;15.75;100.00;97260.13;5022988;28;19928;-48
2023/03/31 09:27:21;;;;;;;;;;;;;;;15.87;100.00;97253.97;5022234;28;20947;-47
2023/03/31 09:30:05;;;;;;;;;;;;;;;16.80;100.00;97225.50;5021061;28;19935;-47
2023/03/31 09:32:31;;;;;;;;;;;;;;;15.47;100.00;97179.31;5022796;28;19935;-47
2023/03/31 09:35:01;;;;;;;;;;;;;;;16.45;100.00;97239.69;5021264;28;19924;-46
2023/03/31 09:37:29;;;;;;;;;;;;;;;16.30;100.00;97221.00;5018884;28;20086;-48
2023/03/31 09:39:54;;;;;;;;;;;;;;;15.99;100.00;97209.78;5021841;28;19948;-46
2023/03/31 09:42:19;;;;;;;;;;;;;;;15.62;100.00;97239.53;5022466;28;20179;-48
2023/03/31 09:44:45;;;;;;;;;;;;;;;15.61;100.00;97278.56;5022786;28;20378;-47
2023/03/31 09:47:29;;;;;;;;;;;;;;;15.16;100.00;97237.16;5023854;28;20825;-49
2023/03/31 09:49:54;;;;;;;;;;;;;;;15.61;100.00;97231.84;5022142;28;20440;-47
2023/03/31 09:52:26;;;;;;;;;;;;;;;16.68;100.00;97232.56;5023130;28;19925;-50
2023/03/31 09:54:55;;;;;;;;;;;;;;;16.59;100.00;97244.53;5021411;28;19924;-48
2023/03/31 09:57:27;;;;;;;;;;;;;;;16.90;100.00;97195.13;5024063;28;19989;-49
2023/03/31 09:59:52;;;;;;;;;;;;;;;16.23;100.00;97144.56;5020567;28;20039;-46
2023/03/31 10:02:34;;;;;;;;;;;;;;;15.06;100.00;97175.69;5017992;28;19921;-47
2023/03/31 10:05:00;;;;;;;;;;;;;;;15.57;100.00;97230.44;5020441;28;20211;-47
2023/03/31 10:07:25;;;;;;;;;;;;;;;14.98;100.00;97250.63;5017899;28;20380;-50
2023/03/31 10:09:51;;;;;;;;;;;;;;;16.33;100.00;97290.91;5018966;28;20436;-46
2023/03/31 10:12:19;;;;;;;;;;;;;;;15.70;100.00;97257.06;5022240;28;19967;-46
2023/03/31 10:14:45;;;;;;;;;;;;;;;15.98;100.00;97260.03;5019001;28;20250;-47
2023/03/31 10:17:14;;;;;;;;;;;;;;;17.19;100.00;97262.03;5021892;28;20398;-47
2023/03/31 10:19:43;;;;;;;;;;;;;;;16.85;100.00;97195.53;5020967;28;19994;-47
2023/03/31 10:22:20;;;;;;;;;;;;;;;16.30;100.00;97208.03;5026327;28;20100;-41
2023/03/31 10:24:46;;;;;;;;;;;;;;;16.78;100.00;97214.38;5016706;28;20019;-41
2023/03/31 10:27:21;;;;;;;;;;;;;;;17.08;100.00;97229.97;5017133;28;19931;-41
2023/03/31 10:29:47;;;;;;;;;;;;;;;17.73;100.00;97174.81;5018231;28;19916;-41
2023/03/31 10:32:17;;;;;;;;;;;;;;;17.56;100.00;97125.09;5015459;28;19971;-41
2023/03/31 10:34:42;;;;;;;;;;;;;;;18.41;100.00;97093.06;5015590;28;19947;-41
2023/03/31 10:37:10;;;;;;;;;;;;;;;17.80;100.00;96991.03;5014140;28;19924;-41
2023/03/31 10:39:35;;;;;;;;;;;;;;;18.00;100.00;97048.28;4999734;28;20111;-41
2023/03/31 10:42:00;;;;;;;;;;;;;;;16.57;100.00;97002.16;5015078;28;19925;-42
2023/03/31 10:44:28;;;;;;;;;;;;;;;17.77;100.00;97025.19;5015503;28;19948;-41
2023/03/31 10:46:54;;;;;;;;;;;;;;;17.33;100.00;96993.66;5014229;28;20057;-41
2023/03/31 10:49:22;;;;;;;;;;;;;;;18.02;100.00;96991.63;5015583;28;19932;-41
2023/03/31 10:51:48;;;;;;;;;;;;;;;17.23;100.00;96953.84;5015769;28;19921;-41
2023/03/31 10:54:13;;;;;;;;;;;;;;;16.56;100.00;97012.69;5017047;28;20271;-41
2023/03/31 10:56:40;;;;;;;;;;;;;;;17.83;100.00;96988.16;5014169;28;19974;-41
2023/03/31 10:59:24;;;;;;;;;;;;;;;18.27;100.00;96941.47;5012523;28;19925;-41
2023/03/31 11:01:53;;;;;;;;;;;;;;;16.89;100.00;96926.53;5016359;28;19927;-41
2023/03/31 11:04:26;;;;;;;;;;;;;;;16.86;100.00;96926.81;5017299;28;20285;-41
2023/03/31 11:06:54;;;;;;;;;;;;;;;17.27;100.00;96900.59;5015240;28;19921;-41
2023/03/31 11:09:26;;;;;;;;;;;;;;;17.56;100.00;96879.63;5014345;28;20495;-41
2023/03/31 11:11:51;;;;;;;;;;;;;;;16.68;100.00;96869.50;5014143;28;19925;-41
2023/03/31 11:14:24;;;;;;;;;;;;;;;17.62;100.00;96847.81;5019185;28;20002;-41
2023/03/31 11:16:52;;;;;;;;;;;;;;;17.55;100.00;96842.38;5014836;28;19912;-41
2023/03/31 11:19:23;;;;;;;;;;;;;;;17.70;100.00;96823.66;5016102;28;20027;-41
2023/03/31 11:21:55;;;;;;;;;;;;;;;17.26;100.00;96813.88;5012825;28;19932;-41
2023/03/31 11:24:23;;;;;;;;;;;;;;;17.11;100.00;96820.56;5017891;28;19959;-41
2023/03/31 11:27:08;;;;;;;;;;;;;;;17.15;100.00;96793.28;5017400;28;20007;-41
2023/03/31 11:29:34;;;;;;;;;;;;;;;16.78;100.00;96803.66;5005899;28;20700;-41
2023/03/31 11:32:15;;;;;;;;;;;;;;;16.85;100.00;96831.56;5014987;28;21313;-42
2023/03/31 11:34:47;;;;;;;;;;;;;;;16.68;100.00;96848.69;5013895;28;19927;-41
2023/03/31 11:37:34;;;;;;;;;;;;;;;16.43;100.00;96876.09;5018002;28;20317;-41
2023/03/31 11:40:03;;;;;;;;;;;;;;;11.73;80.46;97271.91;5015601;28;20254;-41
2023/03/31 11:42:32;;;;;;;;;;;;;;;12.83;94.48;97795.13;5013434;28;19975;-41
2023/03/31 11:45:00;;;;;;;;;;;;;;;14.68;100.00;97794.53;5013411;28;19948;-41
2023/03/31 11:47:26;;;;;;;;;;;;;;;13.73;100.00;97691.19;5015354;28;19928;-41
2023/03/31 11:49:55;;;;;;;;;;;;;;;13.80;100.00;97629.53;5011567;28;19967;-41
2023/03/31 11:52:23;;;;;;;;;;;;;;;13.24;100.00;97634.88;5016329;28;19932;-41
2023/03/31 11:54:54;;;;;;;;;;;;;;;13.51;100.00;97626.28;5016731;28;19921;-41
2023/03/31 11:57:22;;;;;;;;;;;;;;;16.20;100.00;97607.97;5017258;28;19959;-41
2023/03/31 11:59:49;;;;;;;;;;;;;;;14.67;100.00;97430.16;5018898;28;19928;-41
2023/03/31 12:02:17;;;;;;;;;;;;;;;15.57;100.00;97453.59;5015622;28;20423;-41
2023/03/31 12:04:43;;;;;;;;;;;;;;;16.65;100.00;97295.16;5014321;28;19921;-41
2023/03/31 12:07:22;;;;;;;;;;;;;;;17.25;100.00;97105.41;5022636;28;20081;-41
2023/03/31 12:10:04;;;;;;;;;;;;;;;18.59;100.00;96995.69;5020493;28;20366;-41
2023/03/31 12:12:30;;;;;;;;;;;;;;;18.72;100.00;96893.59;5017092;28;19932;-41
2023/03/31 12:15:07;;;;;;;;;;;;;;;18.94;100.00;96881.09;5016113;28;19921;-41
2023/03/31 12:17:32;;;;;;;;;;;;;;;19.16;100.00;96823.16;5016792;28;21400;-41
2023/03/31 12:20:09;;;;;;;;;;;;;;;17.89;100.00;96823.53;5015662;28;19921;-41
2023/03/31 12:22:44;;;;;;;;;;;;;;;14.31;100.00;97022.72;5012780;28;19988;-41
2023/03/31 12:25:16;;;;;;;;;;;;;;;12.69;100.00;97213.03;5015945;28;19925;-41
2023/03/31 12:27:41;;;;;;;;;;;;;;;13.66;100.00;97420.91;5017037;28;19925;-41
2023/03/31 12:30:10;;;;;;;;;;;;;;;13.78;100.00;97484.72;5014623;28;19959;-41
2023/03/31 12:32:36;;;;;;;;;;;;;;;14.08;100.00;97575.88;5015608;28;20020;-41
2023/03/31 12:35:03;;;;;;;;;;;;;;;14.01;100.00;97570.31;5014262;28;20184;-40
2023/03/31 12:37:40;;;;;;;;;;;;;;;13.91;100.00;97595.16;5013007;28;20404;-41